This is the latest recevied weather packets stored in our database for station/object KD8BMB. If no packets are shown the sender has not sent any weather packets the latest 1 day(s).
| Time | Temp. | Humidity | Pressure | Rain* | Wind** | Luminosity | Snow |
|---|---|---|---|---|---|---|---|
| 1778093151 | 10.56° C | 49% | 1012.5 hPa | 0 mm | - | 176 W/m² | - |
| 1778092544 | 11.67° C | 47% | 1012.9 hPa | 0 mm | - | 311 W/m² | - |
| 1778090423 | 10° C | 49% | 1013 hPa | 0 mm | - | 473 W/m² | - |
| 1778089816 | 10° C | 50% | 1012.7 hPa | 0 mm | - | 219 W/m² | - |
| 1778086481 | 10° C | 54% | 1013 hPa | 0 mm | - | 677 W/m² | - |
| 1778083740 | 10° C | 58% | 1013.4 hPa | 0 mm | - | 291 W/m² | - |
| 1778081406 | 8.33° C | 63% | 1013.4 hPa | 0 mm | - | 861 W/m² | - |
| 1778080195 | 7.78° C | 64% | 1013.1 hPa | 0 mm | - | 377 W/m² | - |
| 1778079891 | 7.78° C | 67% | 1013.1 hPa | 0 mm | - | 592 W/m² | - |
| 1778077470 | 8.33° C | 65% | 1012.9 hPa | 0 mm | - | 242 W/m² | - |
| 1778075957 | 6.67° C | 71% | 1012.9 hPa | 0 mm | - | 218 W/m² | - |
| 1778074137 | 6.67° C | 74% | 1012.2 hPa | 0 mm | - | 415 W/m² | - |
| 1778072320 | 6.11° C | 75% | 1012.1 hPa | 0 mm | - | 307 W/m² | - |
| 1778072018 | 6.11° C | 74% | 1012.2 hPa | 0 mm | - | 279 W/m² | - |
| 1778071716 | 5.56° C | 74% | 1012 hPa | 0 mm | - | 297 W/m² | - |
| 1778067783 | 3.89° C | 84% | 1011.4 hPa | 0 mm | - | 60 W/m² | - |
| 1778067481 | 3.89° C | 85% | 1011.5 hPa | 0 mm | - | 51 W/m² | - |
| 1778065664 | 2.78° C | 90% | 1010.7 hPa | 0 mm | - | 27 W/m² | - |
| 1778065362 | 2.78° C | 91% | 1011.1 hPa | 0 mm | - | 23 W/m² | - |
| 1778064755 | 2.22° C | 92% | 1010.8 hPa | 0 mm | - | 16 W/m² | - |
| 1778064150 | 2.22° C | 91% | 1010.7 hPa | 0 mm | - | 10 W/m² | - |
| 1778063847 | 2.22° C | 90% | 1010.4 hPa | 0 mm | - | 9 W/m² | - |
| 1778063242 | 2.78° C | 89% | 1010.2 hPa | 0 mm | - | 3 W/m² | - |
| 1778062940 | 2.78° C | 88% | 1010.2 hPa | 0 mm | - | 0 W/m² | - |
| 1778062333 | 3.33° C | 86% | 1010 hPa | 0 mm | - | 0 W/m² | - |
* Rain latest hour (hover to see other rain measurements)
** Current wind speed in m/s (hover to see current wind gust speed)